Time;durP1;ratioP1;P1;durP2;ratioP2;P2;SDS_P1;SDS_P2;PMS_P1;PMS_P2;Temp;Humidity;BMP_temperature;BMP_pressure;BME280_temperature;BME280_humidity;BME280_pressure;Samples;Min_cycle;Max_cycle;Signal;HPM_P1;HPM_P2
2023/04/11 00:01:23;;;;;;;3.53;2.35;;;14.80;50.30;;;;;;6371743;22;20026;-82
2023/04/11 00:03:48;;;;;;;4.43;3.03;;;14.80;50.40;;;;;;6399871;22;19998;-82
2023/04/11 00:06:14;;;;;;;5.00;3.05;;;14.80;50.60;;;;;;6399627;22;20009;-82
2023/04/11 00:08:40;;;;;;;3.92;2.92;;;14.80;50.70;;;;;;6399543;22;20002;-82
2023/04/11 00:11:06;;;;;;;4.20;2.95;;;14.80;50.90;;;;;;6399907;22;19994;-82
2023/04/11 00:13:33;;;;;;;3.45;2.72;;;14.80;50.90;;;;;;6399839;22;20055;-82
2023/04/11 00:16:01;;;;;;;4.30;3.15;;;14.80;50.70;;;;;;6401531;22;20001;-83
2023/04/11 00:18:26;;;;;;;3.65;2.97;;;14.80;51.00;;;;;;6401821;22;20021;-82
2023/04/11 00:20:52;;;;;;;3.55;3.05;;;14.80;51.10;;;;;;6401979;22;20001;-82
2023/04/11 00:23:18;;;;;;;5.20;2.70;;;14.80;51.20;;;;;;6401406;22;19994;-82
2023/04/11 00:25:43;;;;;;;4.75;2.92;;;14.70;51.30;;;;;;6401571;22;20033;-82
2023/04/11 00:28:09;;;;;;;3.78;2.80;;;14.70;51.40;;;;;;6401958;22;20392;-81
2023/04/11 00:30:35;;;;;;;3.35;2.50;;;14.70;51.70;;;;;;6401735;22;20050;-82
2023/04/11 00:33:01;;;;;;;3.47;2.30;;;14.70;51.60;;;;;;6401902;22;19998;-84
2023/04/11 00:35:26;;;;;;;2.90;2.53;;;14.70;51.70;;;;;;6401861;22;19998;-84
2023/04/11 00:37:54;;;;;;;4.90;2.88;;;14.70;51.70;;;;;;6402082;22;20002;-84
2023/04/11 00:40:21;;;;;;;3.58;2.83;;;14.70;51.70;;;;;;6374438;22;20163;-84
2023/04/11 00:42:47;;;;;;;3.75;2.90;;;14.70;52.00;;;;;;6401490;22;20006;-82
2023/04/11 00:45:13;;;;;;;3.00;2.55;;;14.70;52.20;;;;;;6401094;22;20001;-84
2023/04/11 00:47:40;;;;;;;3.92;2.70;;;14.60;52.00;;;;;;6401088;22;20052;-82
2023/04/11 00:50:07;;;;;;;3.50;3.20;;;14.60;52.20;;;;;;6373047;22;20126;-82
2023/04/11 00:52:35;;;;;;;4.75;3.17;;;14.60;52.50;;;;;;6400954;22;19994;-83
2023/04/11 00:55:02;;;;;;;3.17;2.63;;;14.60;52.50;;;;;;6371623;22;20005;-83
2023/04/11 00:57:29;;;;;;;3.85;2.85;;;14.60;52.70;;;;;;6399607;22;19994;-83
2023/04/11 00:59:55;;;;;;;3.90;2.70;;;14.60;52.80;;;;;;6372179;22;20010;-83
2023/04/11 01:02:23;;;;;;;3.45;3.05;;;14.60;52.80;;;;;;6400449;22;20501;-84
2023/04/11 01:04:50;;;;;;;4.55;3.25;;;14.60;52.90;;;;;;6401008;22;20009;-84
2023/04/11 01:07:18;;;;;;;3.88;3.20;;;14.60;52.90;;;;;;6400899;22;19998;-84
2023/04/11 01:09:44;;;;;;;3.47;2.78;;;14.60;53.00;;;;;;6372701;22;20058;-84
2023/04/11 01:12:12;;;;;;;5.32;3.47;;;14.60;53.00;;;;;;6372421;22;20369;-84
2023/04/11 01:14:39;;;;;;;3.75;3.13;;;14.60;53.10;;;;;;6373328;22;20052;-85
2023/04/11 01:17:06;;;;;;;5.13;3.67;;;14.50;53.10;;;;;;6374146;22;20009;-86
2023/04/11 01:19:32;;;;;;;4.38;3.30;;;14.50;53.20;;;;;;6403072;22;20001;-87
2023/04/11 01:22:00;;;;;;;3.92;3.10;;;14.50;53.40;;;;;;6402821;22;20022;-87
2023/04/11 01:24:26;;;;;;;4.40;3.10;;;14.50;53.40;;;;;;6402384;22;20107;-87
2023/04/11 01:26:53;;;;;;;3.00;2.70;;;14.50;53.50;;;;;;6403863;22;20473;-86
2023/04/11 01:29:18;;;;;;;4.53;3.15;;;14.40;53.60;;;;;;6403598;22;20074;-86
2023/04/11 01:31:44;;;;;;;4.35;3.05;;;14.30;53.60;;;;;;6376448;22;20350;-86
2023/04/11 01:34:13;;;;;;;3.08;2.70;;;14.30;54.60;;;;;;6404332;22;19994;-86
2023/04/11 01:36:40;;;;;;;4.53;2.75;;;14.30;54.20;;;;;;6403897;22;20423;-84
2023/04/11 01:39:06;;;;;;;5.30;2.97;;;14.20;54.00;;;;;;6403509;22;19998;-83
2023/04/11 01:41:34;;;;;;;3.40;3.08;;;14.20;54.60;;;;;;6404139;22;20005;-84
2023/04/11 01:44:03;;;;;;;4.32;2.92;;;14.20;54.20;;;;;;6375095;22;20331;-83
2023/04/11 01:46:29;;;;;;;4.27;3.30;;;14.20;54.20;;;;;;6373942;22;20025;-84
2023/04/11 01:48:56;;;;;;;3.95;3.33;;;14.20;54.20;;;;;;6401913;22;19997;-84
2023/04/11 01:51:22;;;;;;;4.70;3.30;;;14.20;54.20;;;;;;6373597;22;20012;-83
2023/04/11 01:53:47;;;;;;;3.28;2.55;;;14.20;54.20;;;;;;6401606;22;19998;-82
2023/04/11 01:56:13;;;;;;;4.93;3.20;;;14.20;54.10;;;;;;6372963;22;20006;-83
2023/04/11 01:58:40;;;;;;;5.57;3.70;;;14.20;54.10;;;;;;6401168;22;20101;-83
2023/04/11 02:01:05;;;;;;;4.97;3.13;;;14.20;53.90;;;;;;6401181;22;20295;-83
2023/04/11 02:03:31;;;;;;;4.03;3.20;;;14.20;54.00;;;;;;6401509;22;20052;-83
2023/04/11 02:05:57;;;;;;;3.85;3.15;;;14.20;54.00;;;;;;6401074;22;19994;-82
2023/04/11 02:08:23;;;;;;;5.10;3.22;;;14.20;54.20;;;;;;6401187;22;20018;-82
2023/04/11 02:10:49;;;;;;;3.42;3.05;;;14.20;54.30;;;;;;6401705;22;19998;-82
2023/04/11 02:13:14;;;;;;;3.78;3.05;;;14.10;54.40;;;;;;6400611;22;20002;-81
2023/04/11 02:15:40;;;;;;;4.22;3.25;;;14.10;54.50;;;;;;6402004;22;20412;-82
2023/04/11 02:18:08;;;;;;;3.88;3.00;;;14.00;54.60;;;;;;6400828;22;20009;-81
2023/04/11 02:20:36;;;;;;;3.90;2.83;;;14.00;54.60;;;;;;6400456;22;20024;-81
2023/04/11 02:23:03;;;;;;;4.28;3.25;;;14.00;54.90;;;;;;6400319;22;20001;-81
2023/04/11 02:25:29;;;;;;;4.90;3.00;;;13.90;55.00;;;;;;6400001;22;20030;-81
2023/04/11 02:27:55;;;;;;;4.18;3.10;;;13.90;55.10;;;;;;6401832;22;19998;-81
2023/04/11 02:30:21;;;;;;;4.97;3.83;;;13.90;55.10;;;;;;6401184;22;20005;-82
2023/04/11 02:32:48;;;;;;;4.45;3.30;;;13.80;55.20;;;;;;6402428;22;19998;-82
2023/04/11 02:35:15;;;;;;;3.95;3.17;;;13.80;55.40;;;;;;6401572;22;19994;-84
2023/04/11 02:37:41;;;;;;;4.30;3.75;;;13.80;55.40;;;;;;6401927;22;19998;-82
2023/04/11 02:40:07;;;;;;;5.30;3.38;;;13.80;55.60;;;;;;6401579;22;19998;-83
2023/04/11 02:42:33;;;;;;;5.10;3.58;;;13.80;55.80;;;;;;6402000;22;20040;-83
2023/04/11 02:44:59;;;;;;;4.63;3.33;;;13.70;55.80;;;;;;6401523;22;19998;-82
2023/04/11 02:47:25;;;;;;;5.18;3.42;;;13.70;56.00;;;;;;6401655;22;20005;-82
2023/04/11 02:49:50;;;;;;;5.13;3.50;;;13.70;56.10;;;;;;6401219;22;20005;-81
2023/04/11 02:52:17;;;;;;;5.72;3.60;;;13.70;56.10;;;;;;6401739;22;19997;-82
2023/04/11 02:54:44;;;;;;;4.65;3.47;;;13.60;56.30;;;;;;6401524;22;19998;-82
2023/04/11 02:57:10;;;;;;;5.03;4.00;;;13.70;56.50;;;;;;6401091;22;20004;-82
2023/04/11 02:59:37;;;;;;;4.22;3.35;;;13.70;56.40;;;;;;6400959;22;19997;-84
2023/04/11 03:02:02;;;;;;;4.68;2.83;;;13.80;56.40;;;;;;6401329;22;20005;-84
2023/04/11 03:04:28;;;;;;;4.95;3.38;;;13.70;56.50;;;;;;6401619;22;20017;-83
2023/04/11 03:06:54;;;;;;;3.95;3.40;;;13.80;56.60;;;;;;6401921;22;20428;-84
2023/04/11 03:09:20;;;;;;;5.05;3.60;;;13.80;56.80;;;;;;6400548;22;20002;-83
2023/04/11 03:11:45;;;;;;;4.07;3.03;;;13.80;56.60;;;;;;6401539;22;20074;-84
2023/04/11 03:14:11;;;;;;;3.75;2.97;;;13.80;56.60;;;;;;6400795;22;19994;-85
2023/04/11 03:16:37;;;;;;;4.88;3.60;;;13.80;56.60;;;;;;6373830;22;20002;-85
2023/04/11 03:19:03;;;;;;;4.80;3.53;;;13.80;56.40;;;;;;6373509;22;20022;-85
2023/04/11 03:21:30;;;;;;;4.90;3.80;;;13.80;56.40;;;;;;6402488;22;20430;-86
2023/04/11 03:23:55;;;;;;;4.65;3.35;;;13.80;56.30;;;;;;6402001;22;20009;-86
2023/04/11 03:26:25;;;;;;;4.63;3.38;;;13.80;56.20;;;;;;6402740;22;20354;-85
2023/04/11 03:28:54;;;;;;;4.10;3.25;;;13.70;56.10;;;;;;6401997;22;20005;-84
2023/04/11 03:31:20;;;;;;;4.57;3.40;;;13.70;56.30;;;;;;6401980;22;20442;-84
2023/04/11 03:33:46;;;;;;;4.13;3.20;;;13.70;56.30;;;;;;6401811;22;19994;-84
2023/04/11 03:36:11;;;;;;;3.47;3.15;;;13.70;56.40;;;;;;6401876;22;20369;-84
2023/04/11 03:38:37;;;;;;;4.53;3.17;;;13.70;56.40;;;;;;6401507;22;20075;-84
2023/04/11 03:41:03;;;;;;;4.65;3.58;;;13.70;56.40;;;;;;6401922;22;19994;-84
2023/04/11 03:43:28;;;;;;;4.57;3.47;;;13.70;56.40;;;;;;6401809;22;20305;-83
2023/04/11 03:45:54;;;;;;;4.90;3.75;;;13.60;56.40;;;;;;6401729;22;20009;-81
2023/04/11 03:48:20;;;;;;;7.13;3.40;;;13.60;56.50;;;;;;6399006;22;20385;-80
2023/04/11 03:50:46;;;;;;;5.15;3.75;;;13.60;56.70;;;;;;6398881;22;20009;-81
2023/04/11 03:53:11;;;;;;;4.63;3.65;;;13.60;56.80;;;;;;6399080;22;20005;-80
2023/04/11 03:55:37;;;;;;;4.05;3.30;;;13.70;56.70;;;;;;6397636;22;20066;-80
2023/04/11 03:58:03;;;;;;;4.57;3.40;;;13.70;56.90;;;;;;6397967;22;19998;-80
2023/04/11 04:00:29;;;;;;;5.43;3.80;;;13.70;57.20;;;;;;6398241;22;20339;-80
2023/04/11 04:02:54;;;;;;;4.32;3.58;;;13.70;57.30;;;;;;6399192;22;20001;-81
2023/04/11 04:05:20;;;;;;;4.25;3.42;;;13.70;57.30;;;;;;6398783;22;20008;-82
2023/04/11 04:07:46;;;;;;;4.47;3.88;;;13.70;57.50;;;;;;6399179;22;20515;-83
2023/04/11 04:10:12;;;;;;;3.97;3.08;;;13.70;57.60;;;;;;6397606;22;20010;-82
2023/04/11 04:12:38;;;;;;;4.68;3.35;;;13.70;57.60;;;;;;6398465;22;20488;-82
2023/04/11 04:15:04;;;;;;;4.40;3.70;;;13.70;57.70;;;;;;6398324;22;20097;-82
2023/04/11 04:17:30;;;;;;;4.25;3.50;;;13.80;57.80;;;;;;6399277;22;20399;-81
2023/04/11 04:19:56;;;;;;;4.75;3.58;;;13.80;57.70;;;;;;6399289;22;20002;-85
2023/04/11 04:22:22;;;;;;;4.07;3.22;;;13.70;57.70;;;;;;6398807;22;20048;-80
2023/04/11 04:24:48;;;;;;;4.32;3.25;;;13.70;57.60;;;;;;6396233;22;20066;-80
2023/04/11 04:27:16;;;;;;;4.43;3.05;;;13.70;57.70;;;;;;6396481;22;20014;-79
2023/04/11 04:29:46;;;;;;;5.05;3.45;;;13.70;58.00;;;;;;6396257;22;20006;-79
2023/04/11 04:32:19;;;;;;;4.17;3.23;;;13.70;58.00;;;;;;6396123;22;19998;-80
2023/04/11 04:34:48;;;;;;;4.35;3.10;;;13.70;57.90;;;;;;6396673;22;20002;-79
2023/04/11 04:37:20;;;;;;;4.50;3.42;;;13.70;58.10;;;;;;6396440;22;20017;-74
2023/04/11 04:39:56;;;;;;;3.50;2.80;;;13.80;58.60;;;;;;6396412;22;20009;-74
2023/04/11 04:42:26;;;;;;;3.90;2.88;;;13.80;58.50;;;;;;6396619;22;20081;-75
2023/04/11 04:44:53;;;;;;;4.78;3.10;;;13.80;58.30;;;;;;6399751;22;20029;-75
2023/04/11 04:47:22;;;;;;;5.65;3.08;;;13.80;58.30;;;;;;6400970;22;20002;-74
2023/04/11 04:49:52;;;;;;;5.22;3.47;;;13.90;58.40;;;;;;6400575;22;20422;-74
2023/04/11 04:52:18;;;;;;;6.05;2.92;;;13.90;58.60;;;;;;6399817;22;20006;-74
2023/04/11 04:54:44;;;;;;;5.30;3.83;;;13.90;58.80;;;;;;6400961;22;20450;-74
2023/04/11 04:57:10;;;;;;;4.25;3.10;;;13.90;58.80;;;;;;6400547;22;20001;-74
2023/04/11 04:59:35;;;;;;;5.32;3.45;;;13.90;58.60;;;;;;6400515;22;20016;-76
2023/04/11 05:02:01;;;;;;;4.03;2.92;;;13.90;58.50;;;;;;6401567;22;20005;-75
2023/04/11 05:04:28;;;;;;;4.30;3.25;;;14.00;57.90;;;;;;6402412;22;19998;-76
2023/04/11 05:06:54;;;;;;;4.43;3.50;;;14.00;57.20;;;;;;6402456;22;20009;-77
2023/04/11 05:09:20;;;;;;;4.30;3.03;;;14.00;56.90;;;;;;6401610;22;20002;-78
2023/04/11 05:11:45;;;;;;;3.97;3.30;;;14.00;56.60;;;;;;6401664;22;20047;-76
2023/04/11 05:14:11;;;;;;;4.53;2.92;;;14.10;56.50;;;;;;6399042;22;19998;-77
2023/04/11 05:16:40;;;;;;;5.43;3.33;;;14.10;56.40;;;;;;6402233;22;20024;-77
2023/04/11 05:19:05;;;;;;;4.50;3.15;;;14.00;55.90;;;;;;6402640;22;20081;-76
2023/04/11 05:21:31;;;;;;;3.67;2.75;;;14.10;56.00;;;;;;6402604;22;20080;-77
2023/04/11 05:23:57;;;;;;;3.60;2.95;;;14.20;55.90;;;;;;6401939;22;20008;-77
2023/04/11 05:26:22;;;;;;;4.20;2.90;;;14.10;55.90;;;;;;6400919;22;20029;-78
2023/04/11 05:28:48;;;;;;;4.22;3.30;;;14.20;56.00;;;;;;6400336;22;20028;-77
2023/04/11 05:31:15;;;;;;;4.60;3.28;;;14.20;55.90;;;;;;6400176;22;20008;-78
2023/04/11 05:33:43;;;;;;;3.92;3.05;;;14.10;56.00;;;;;;6402588;22;20397;-78
2023/04/11 05:36:13;;;;;;;5.10;3.25;;;14.20;56.00;;;;;;6403392;22;20009;-83
2023/04/11 05:38:43;;;;;;;5.20;3.40;;;14.20;55.80;;;;;;6374474;22;20005;-78
2023/04/11 05:41:09;;;;;;;6.05;3.17;;;14.30;55.70;;;;;;6374198;22;20123;-78
2023/04/11 05:43:35;;;;;;;6.35;3.25;;;14.30;55.50;;;;;;6374773;22;20085;-78
2023/04/11 05:46:01;;;;;;;5.72;3.20;;;14.40;55.70;;;;;;6402447;22;20051;-78
2023/04/11 05:48:27;;;;;;;6.45;3.42;;;14.40;55.60;;;;;;6374384;22;20009;-77
2023/04/11 05:50:53;;;;;;;3.60;3.15;;;14.40;55.10;;;;;;6400997;22;20002;-77
2023/04/11 05:53:18;;;;;;;6.32;3.67;;;14.50;54.80;;;;;;6400541;22;19998;-77
2023/04/11 05:55:44;;;;;;;4.05;3.22;;;14.50;54.70;;;;;;6401589;22;20002;-77
2023/04/11 05:58:10;;;;;;;4.63;3.53;;;14.50;54.50;;;;;;6401127;22;20050;-77
2023/04/11 06:00:37;;;;;;;5.63;3.55;;;14.50;54.30;;;;;;6402843;22;20001;-77
2023/04/11 06:03:04;;;;;;;6.60;3.97;;;14.50;54.30;;;;;;6402518;22;20153;-77
2023/04/11 06:05:30;;;;;;;4.20;3.60;;;14.60;54.00;;;;;;6374373;22;20309;-78
2023/04/11 06:08:00;;;;;;;6.93;3.72;;;14.60;53.80;;;;;;6402857;22;19998;-85
2023/04/11 06:10:26;;;;;;;7.67;3.40;;;14.60;53.70;;;;;;6403287;22;20379;-86
2023/04/11 06:12:52;;;;;;;4.72;3.00;;;14.60;54.40;;;;;;6401902;22;20215;-77
2023/04/11 06:15:18;;;;;;;4.68;3.22;;;14.70;54.70;;;;;;6402719;22;19994;-77
2023/04/11 06:17:44;;;;;;;10.57;3.60;;;14.80;54.50;;;;;;6402731;22;20004;-78
2023/04/11 06:20:10;;;;;;;4.50;3.08;;;14.80;54.30;;;;;;6402424;22;20001;-79
2023/04/11 06:22:36;;;;;;;5.47;2.95;;;14.80;53.80;;;;;;6402721;22;19998;-78
2023/04/11 06:25:03;;;;;;;4.07;3.00;;;14.90;53.60;;;;;;6402538;22;20010;-79
2023/04/11 06:27:29;;;;;;;4.57;3.08;;;14.90;53.50;;;;;;6373623;22;20368;-77
2023/04/11 06:29:55;;;;;;;5.88;3.33;;;15.00;53.60;;;;;;6402278;22;20316;-80
2023/04/11 06:32:21;;;;;;;6.55;3.70;;;15.00;53.60;;;;;;6402727;22;20001;-81
2023/04/11 06:34:46;;;;;;;6.60;3.67;;;15.00;53.60;;;;;;6403102;22;20018;-80
2023/04/11 06:37:12;;;;;;;4.13;2.60;;;15.10;53.60;;;;;;6402344;22;19998;-77
2023/04/11 06:39:38;;;;;;;5.85;3.00;;;15.10;53.50;;;;;;6402491;22;20305;-77
2023/04/11 06:42:03;;;;;;;5.13;3.25;;;15.10;53.30;;;;;;6401364;22;20048;-77
2023/04/11 06:44:29;;;;;;;4.32;3.45;;;15.20;53.00;;;;;;6402418;22;20008;-77
2023/04/11 06:46:55;;;;;;;4.30;3.38;;;15.20;52.90;;;;;;6403320;22;20435;-77
2023/04/11 06:49:22;;;;;;;4.72;3.40;;;15.20;53.00;;;;;;6374880;22;20404;-77
2023/04/11 06:51:50;;;;;;;4.55;3.47;;;15.30;53.10;;;;;;6402575;22;19998;-77
2023/04/11 06:54:17;;;;;;;4.63;3.28;;;15.30;53.00;;;;;;6402419;22;19998;-77
2023/04/11 06:56:43;;;;;;;4.75;3.20;;;15.40;53.20;;;;;;6402046;22;20047;-80
2023/04/11 06:59:09;;;;;;;4.97;3.53;;;15.40;53.10;;;;;;6401523;22;20009;-80
2023/04/11 07:01:38;;;;;;;4.65;3.55;;;15.50;53.10;;;;;;6403186;22;20416;-77
2023/04/11 07:04:04;;;;;;;4.85;3.42;;;15.50;53.20;;;;;;6402767;22;20311;-77
2023/04/11 07:06:30;;;;;;;6.18;3.67;;;15.50;52.80;;;;;;6401946;22;20315;-77
2023/04/11 07:08:57;;;;;;;6.97;3.78;;;15.50;52.50;;;;;;6401969;22;20005;-77
2023/04/11 07:11:23;;;;;;;6.03;3.55;;;15.60;52.80;;;;;;6402934;22;19994;-77
2023/04/11 07:13:49;;;;;;;5.70;3.40;;;15.60;53.00;;;;;;6402833;22;19998;-76
2023/04/11 07:16:15;;;;;;;5.57;3.45;;;15.60;53.00;;;;;;6402452;22;20002;-76
2023/04/11 07:18:41;;;;;;;4.57;3.78;;;15.70;52.80;;;;;;6401090;22;20005;-77
2023/04/11 07:21:11;;;;;;;4.63;3.65;;;15.60;52.80;;;;;;6402511;22;19997;-77
2023/04/11 07:23:36;;;;;;;5.82;3.78;;;15.70;53.10;;;;;;6402436;22;19994;-80
2023/04/11 07:26:02;;;;;;;4.00;3.25;;;15.70;53.40;;;;;;6402442;22;20010;-80
2023/04/11 07:28:30;;;;;;;4.55;3.67;;;15.70;53.70;;;;;;6402197;22;20015;-80
2023/04/11 07:30:56;;;;;;;5.28;3.58;;;15.80;53.50;;;;;;6402525;22;20010;-80
2023/04/11 07:33:22;;;;;;;4.68;3.50;;;15.80;53.20;;;;;;6403003;22;19998;-80
2023/04/11 07:35:48;;;;;;;5.65;3.42;;;15.90;53.40;;;;;;6402969;22;19998;-80
2023/04/11 07:38:28;;;;;;;4.47;3.50;;;15.90;53.40;;;;;;6402737;22;20320;-80
2023/04/11 07:40:55;;;;;;;4.55;3.35;;;15.90;53.20;;;;;;6402834;22;20006;-80
2023/04/11 07:43:21;;;;;;;3.78;3.15;;;15.90;53.00;;;;;;6402166;22;19998;-80
2023/04/11 07:45:47;;;;;;;6.57;3.63;;;15.90;52.80;;;;;;6402689;22;19997;-80
2023/04/11 07:48:12;;;;;;;4.57;3.70;;;15.90;52.80;;;;;;6402546;22;20309;-80
2023/04/11 07:50:38;;;;;;;5.15;3.63;;;16.00;53.00;;;;;;6402470;22;20005;-80
2023/04/11 07:53:04;;;;;;;3.83;2.92;;;16.00;53.00;;;;;;6398584;22;20131;-77
2023/04/11 07:55:29;;;;;;;6.90;4.05;;;16.10;53.00;;;;;;6400888;22;20077;-78
2023/04/11 07:57:55;;;;;;;4.35;3.45;;;16.10;52.80;;;;;;6401013;22;20320;-77
2023/04/11 08:00:22;;;;;;;7.35;3.00;;;16.20;52.80;;;;;;6401436;22;20047;-81
2023/04/11 08:02:48;;;;;;;4.55;3.30;;;16.20;52.60;;;;;;6401663;22;20328;-80
2023/04/11 08:05:14;;;;;;;4.82;3.30;;;16.20;52.20;;;;;;6401854;22;20001;-80
2023/04/11 08:07:40;;;;;;;5.22;4.13;;;16.20;52.00;;;;;;6401586;22;20007;-80
2023/04/11 08:10:06;;;;;;;4.40;3.58;;;16.20;52.10;;;;;;6401360;22;20009;-80
2023/04/11 08:12:32;;;;;;;6.25;3.60;;;16.20;52.20;;;;;;6401941;22;19994;-80
2023/04/11 08:14:58;;;;;;;5.40;3.20;;;16.20;52.20;;;;;;6401901;22;20001;-80
2023/04/11 08:17:27;;;;;;;4.63;3.50;;;15.40;51.90;;;;;;6401689;22;20065;-77
2023/04/11 08:19:54;;;;;;;6.10;3.75;;;16.30;52.30;;;;;;6401912;22;20081;-77
2023/04/11 08:22:19;;;;;;;4.88;3.97;;;16.40;52.30;;;;;;6401765;22;20422;-77
2023/04/11 08:24:45;;;;;;;4.72;3.75;;;16.40;52.00;;;;;;6402031;22;20010;-77
2023/04/11 08:27:10;;;;;;;5.22;3.70;;;16.40;52.00;;;;;;6373250;22;20058;-77
2023/04/11 08:29:36;;;;;;;4.03;3.30;;;16.40;51.70;;;;;;6402011;22;20073;-77
2023/04/11 08:32:03;;;;;;;4.45;3.20;;;16.50;51.80;;;;;;6402128;22;20734;-78
2023/04/11 08:34:31;;;;;;;4.38;3.42;;;16.50;51.80;;;;;;6401335;22;20039;-78
2023/04/11 08:36:57;;;;;;;7.53;3.65;;;16.50;51.90;;;;;;6401956;22;20005;-78
2023/04/11 08:39:22;;;;;;;4.13;3.35;;;16.50;51.50;;;;;;6402391;22;20002;-77
2023/04/11 08:41:49;;;;;;;6.78;3.80;;;16.60;51.20;;;;;;6401050;22;20082;-78
2023/04/11 08:44:14;;;;;;;4.88;3.47;;;16.60;51.10;;;;;;6401598;22;20009;-78
2023/04/11 08:46:42;;;;;;;4.03;3.25;;;16.80;51.10;;;;;;6402078;22;20002;-77
2023/04/11 08:49:07;;;;;;;4.22;3.45;;;16.90;51.00;;;;;;6402059;22;20317;-77
2023/04/11 08:51:33;;;;;;;5.68;3.80;;;17.00;50.50;;;;;;6401777;22;19998;-77
2023/04/11 08:54:04;;;;;;;4.60;3.65;;;17.20;50.40;;;;;;6401656;22;20435;-77
2023/04/11 08:56:30;;;;;;;4.97;4.03;;;17.30;50.50;;;;;;6401346;22;19998;-77
2023/04/11 08:58:56;;;;;;;5.75;3.60;;;17.40;50.60;;;;;;6401805;22;20412;-77
2023/04/11 09:01:25;;;;;;;5.07;3.58;;;17.50;50.60;;;;;;6402175;22;20002;-77
2023/04/11 09:03:51;;;;;;;4.63;3.10;;;17.60;49.80;;;;;;6401794;22;20366;-78
2023/04/11 09:06:17;;;;;;;7.68;3.97;;;17.60;49.40;;;;;;6401523;22;19998;-77
2023/04/11 09:08:42;;;;;;;5.80;3.45;;;17.70;49.00;;;;;;6400348;22;20312;-78
2023/04/11 09:11:08;;;;;;;4.13;3.60;;;17.80;48.90;;;;;;6400882;22;20361;-78
2023/04/11 09:13:34;;;;;;;5.38;3.25;;;17.90;48.40;;;;;;6401062;22;20080;-78
2023/04/11 09:16:05;;;;;;;14.85;3.70;;;18.00;48.10;;;;;;6401386;22;20022;-78
2023/04/11 09:18:34;;;;;;;7.55;4.22;;;18.10;48.10;;;;;;6401477;22;20487;-78
2023/04/11 09:21:02;;;;;;;5.72;4.00;;;18.20;47.80;;;;;;6401860;22;20025;-78
2023/04/11 09:23:28;;;;;;;6.65;3.80;;;18.30;47.90;;;;;;6373325;22;20030;-78
2023/04/11 09:25:53;;;;;;;5.07;3.50;;;18.40;47.90;;;;;;6401441;22;20032;-78
2023/04/11 09:28:19;;;;;;;5.90;3.67;;;18.60;47.70;;;;;;6401360;22;20074;-77
2023/04/11 09:30:52;;;;;;;5.28;3.92;;;18.80;47.60;;;;;;6401606;22;20424;-78
2023/04/11 09:33:20;;;;;;;6.13;4.07;;;18.90;47.10;;;;;;6401412;22;19994;-78
2023/04/11 09:35:48;;;;;;;5.07;4.18;;;19.00;47.10;;;;;;6401685;22;20479;-78
2023/04/11 09:38:25;;;;;;;6.25;4.25;;;19.10;47.30;;;;;;6401657;22;19998;-78
2023/04/11 09:40:52;;;;;;;6.47;3.88;;;19.30;47.60;;;;;;6402153;22;20408;-81
2023/04/11 09:43:17;;;;;;;7.28;3.60;;;19.50;47.70;;;;;;6401688;22;20029;-81
2023/04/11 09:45:44;;;;;;;12.65;3.95;;;19.60;47.70;;;;;;6401922;22;19998;-81
2023/04/11 09:48:11;;;;;;;6.38;4.20;;;19.80;47.70;;;;;;6375356;22;20154;-81
2023/04/11 09:50:38;;;;;;;6.35;3.88;;;19.90;47.50;;;;;;6403575;22;20139;-81
2023/04/11 09:53:05;;;;;;;7.18;3.75;;;20.00;47.40;;;;;;6403047;22;20005;-81
2023/04/11 09:55:32;;;;;;;7.32;3.50;;;20.20;47.20;;;;;;6402760;22;19993;-81
2023/04/11 09:57:58;;;;;;;6.72;3.47;;;20.30;46.90;;;;;;6403437;22;19994;-81
2023/04/11 10:00:28;;;;;;;4.68;3.67;;;20.30;46.80;;;;;;6375280;22;20009;-81
2023/04/11 10:02:55;;;;;;;5.97;4.20;;;20.40;47.00;;;;;;6403584;22;20006;-81
2023/04/11 10:05:26;;;;;;;6.90;4.20;;;20.50;47.00;;;;;;6403152;22;20339;-81
2023/04/11 10:08:15;;;;;;;8.55;4.32;;;20.60;46.80;;;;;;6374585;22;20005;-81
2023/04/11 10:10:42;;;;;;;6.05;3.88;;;20.70;46.50;;;;;;6402645;22;20002;-78
2023/04/11 10:13:44;;;;;;;5.53;4.15;;;20.70;46.60;;;;;;6403360;22;20342;-78
2023/04/11 10:16:17;;;;;;;6.68;3.90;;;20.70;46.60;;;;;;6320210;22;20006;-77
2023/04/11 10:18:52;;;;;;;15.02;4.13;;;20.70;46.90;;;;;;6402219;22;19998;-78
2023/04/11 10:21:31;;;;;;;5.00;4.43;;;20.70;46.90;;;;;;6402949;22;19994;-78
2023/04/11 10:24:16;;;;;;;6.10;4.22;;;20.70;47.10;;;;;;6402754;22;20031;-81
2023/04/11 10:26:52;;;;;;;4.97;3.63;;;20.70;47.60;;;;;;6403227;22;20005;-81
2023/04/11 10:32:08;;;;;;;6.22;4.15;;;20.90;47.30;;;;;;6402824;22;20012;-81
2023/04/11 10:34:37;;;;;;;6.18;4.00;;;20.80;47.50;;;;;;6374425;22;20379;-81
2023/04/11 10:37:07;;;;;;;5.65;4.07;;;20.90;47.30;;;;;;6402391;22;20296;-81
2023/04/11 10:40:07;;;;;;;5.70;4.00;;;20.90;47.10;;;;;;6373793;22;20002;-81
2023/04/11 10:42:33;;;;;;;;;;;21.00;47.20;;;;;;6402807;22;20029;-81
2023/04/11 10:45:18;;;;;;;6.13;3.67;;;21.00;47.10;;;;;;6402138;22;19897;-81
2023/04/11 10:47:56;;;;;;;7.65;4.05;;;21.00;47.50;;;;;;6402268;22;20002;-81
2023/04/11 10:50:27;;;;;;;5.40;4.38;;;21.10;47.30;;;;;;6402706;22;20002;-81
2023/04/11 10:53:05;;;;;;;5.97;3.90;;;21.10;46.90;;;;;;6402298;22;19998;-81
2023/04/11 10:55:48;;;;;;;5.18;4.10;;;21.20;46.70;;;;;;6399331;22;20015;-81
2023/04/11 10:58:20;;;;;;;5.15;4.40;;;21.20;46.60;;;;;;6397824;22;19998;-81
2023/04/11 11:00:47;;;;;;;5.22;4.25;;;21.20;46.10;;;;;;6399590;22;20076;-81
2023/04/11 11:03:14;;;;;;;5.18;3.83;;;21.30;45.70;;;;;;6400693;22;20323;-81
2023/04/11 11:05:40;;;;;;;5.43;3.97;;;21.30;45.60;;;;;;6401946;22;20002;-81
2023/04/11 11:08:06;;;;;;;5.90;4.65;;;21.50;45.70;;;;;;6400696;22;19998;-81
2023/04/11 11:10:36;;;;;;;6.32;4.80;;;21.70;45.70;;;;;;6401421;22;20008;-81
2023/04/11 11:13:03;;;;;;;4.95;4.07;;;21.80;45.80;;;;;;6398672;22;20055;-78
2023/04/11 11:15:29;;;;;;;5.47;4.55;;;21.80;46.10;;;;;;6374086;22;20077;-78
2023/04/11 11:17:54;;;;;;;6.03;4.07;;;21.90;45.40;;;;;;6400759;22;19994;-78
2023/04/11 11:20:20;;;;;;;7.55;4.47;;;22.10;44.90;;;;;;6401397;22;20006;-78
2023/04/11 11:23:06;;;;;;;4.97;3.58;;;22.10;44.00;;;;;;6372916;22;20010;-78
2023/04/11 11:25:34;;;;;;;6.47;3.67;;;22.20;42.00;;;;;;6401758;22;20021;-78
2023/04/11 11:28:01;;;;;;;4.03;3.33;;;22.30;41.20;;;;;;6373900;22;20410;-78
2023/04/11 11:30:27;;;;;;;5.25;4.03;;;22.30;41.40;;;;;;6400443;22;20419;-78
2023/04/11 11:32:53;;;;;;;4.75;4.18;;;22.30;40.90;;;;;;6399726;22;20069;-79
2023/04/11 11:35:19;;;;;;;4.97;4.20;;;22.40;39.70;;;;;;6400709;22;20304;-85
2023/04/11 11:37:45;;;;;;;5.05;4.13;;;22.50;38.90;;;;;;6374192;22;20459;-86
2023/04/11 11:40:12;;;;;;;4.00;3.20;;;22.70;38.70;;;;;;6402379;22;20078;-86
2023/04/11 11:42:39;;;;;;;5.05;3.70;;;22.80;38.10;;;;;;6400687;22;20078;-85
2023/04/11 11:45:15;;;;;;;4.15;3.00;;;23.00;37.60;;;;;;6371532;22;20032;-86
2023/04/11 11:47:43;;;;;;;3.90;3.10;;;23.20;37.00;;;;;;6402253;22;20002;-86
2023/04/11 11:50:09;;;;;;;3.60;2.90;;;23.50;36.60;;;;;;6402926;22;20299;-86
2023/04/11 11:52:38;;;;;;;5.03;2.55;;;23.70;37.10;;;;;;6402557;22;19998;-79
2023/04/11 11:55:25;;;;;;;3.85;2.67;;;23.70;36.80;;;;;;6374402;22;20337;-79
2023/04/11 11:57:51;;;;;;;3.10;2.50;;;23.70;36.30;;;;;;6401935;22;20312;-78
2023/04/11 12:00:24;;;;;;;2.47;2.00;;;23.70;36.30;;;;;;6402207;22;20059;-87
2023/04/11 12:02:51;;;;;;;2.72;2.10;;;23.70;36.10;;;;;;6402232;22;20327;-87
2023/04/11 12:05:17;;;;;;;2.03;1.80;;;23.60;35.60;;;;;;6402925;22;20002;-86
2023/04/11 12:07:43;;;;;;;2.00;1.80;;;23.50;35.00;;;;;;6374275;22;20009;-86
2023/04/11 12:10:14;;;;;;;2.88;2.10;;;23.40;35.20;;;;;;6401806;22;20056;-86
2023/04/11 12:12:47;;;;;;;2.40;2.17;;;23.30;34.30;;;;;;6402067;22;20020;-86
2023/04/11 12:15:21;;;;;;;2.03;1.83;;;23.20;34.40;;;;;;6401692;22;19998;-85
2023/04/11 12:17:51;;;;;;;2.08;1.88;;;23.30;34.80;;;;;;6402745;22;20074;-86
2023/04/11 12:20:26;;;;;;;4.15;2.28;;;23.30;34.60;;;;;;6402351;22;19998;-78
2023/04/11 12:22:53;;;;;;;3.08;2.60;;;23.20;34.30;;;;;;6401963;22;20025;-79
2023/04/11 12:25:18;;;;;;;4.78;2.45;;;23.20;34.60;;;;;;6401966;22;20013;-79
2023/04/11 12:27:45;;;;;;;2.92;2.53;;;23.30;34.60;;;;;;6402615;22;20006;-78
2023/04/11 12:30:15;;;;;;;2.10;1.88;;;23.40;35.00;;;;;;6401976;22;20001;-78
2023/04/11 12:32:41;;;;;;;2.47;1.93;;;23.50;34.80;;;;;;6402437;22;20345;-79
2023/04/11 12:35:07;;;;;;;3.90;2.15;;;23.50;34.80;;;;;;6402428;22;19998;-79
2023/04/11 12:37:33;;;;;;;2.42;2.00;;;23.50;34.30;;;;;;6402019;22;20301;-79
2023/04/11 12:39:59;;;;;;;2.47;1.92;;;23.60;33.80;;;;;;6401871;22;20002;-79
2023/04/11 12:42:25;;;;;;;3.28;2.10;;;23.60;34.00;;;;;;6401730;22;20399;-79
2023/04/11 12:44:51;;;;;;;3.75;1.90;;;23.50;34.90;;;;;;6401357;22;20089;-79
2023/04/11 12:47:16;;;;;;;1.95;1.75;;;23.50;34.40;;;;;;6401876;22;20273;-79
2023/04/11 12:49:42;;;;;;;3.40;1.90;;;23.50;34.20;;;;;;6401707;22;20358;-79
2023/04/11 12:52:08;;;;;;;2.17;1.98;;;23.50;34.40;;;;;;6402096;22;19994;-79